createdAt,value
2023-09-27T00:00:18.787Z,3.33
2023-09-27T00:02:47.415Z,3.35
2023-09-27T00:05:18.005Z,3.10
2023-09-27T00:07:47.708Z,2.88
2023-09-27T00:10:16.109Z,3.28
2023-09-27T00:12:44.839Z,3.00
2023-09-27T00:15:13.816Z,3.20
2023-09-27T00:17:43.217Z,2.78
2023-09-27T00:20:17.683Z,2.40
2023-09-27T00:22:47.512Z,2.50
2023-09-27T00:25:16.321Z,2.30
2023-09-27T00:27:44.638Z,2.65
2023-09-27T00:30:15.525Z,2.42
2023-09-27T00:32:45.548Z,2.10
2023-09-27T00:35:20.401Z,2.28
2023-09-27T00:37:51.691Z,2.50
2023-09-27T00:40:23.273Z,2.20
2023-09-27T00:42:51.484Z,2.13
2023-09-27T00:45:20.226Z,2.28
2023-09-27T00:47:50.052Z,2.03
2023-09-27T00:50:19.018Z,2.30
2023-09-27T00:52:50.229Z,1.85
2023-09-27T00:55:21.812Z,2.13
2023-09-27T00:57:51.139Z,2.00
2023-09-27T01:00:20.627Z,2.17
2023-09-27T01:02:49.223Z,2.22
2023-09-27T01:05:19.586Z,2.20
2023-09-27T01:07:48.153Z,2.30
2023-09-27T01:10:17.913Z,2.20
2023-09-27T01:12:46.192Z,2.35
2023-09-27T01:15:14.404Z,2.03
2023-09-27T01:17:54.867Z,1.95
2023-09-27T01:20:23.125Z,1.85
2023-09-27T01:22:59.079Z,1.70
2023-09-27T01:25:29.672Z,1.90
2023-09-27T01:27:58.326Z,2.22
2023-09-27T01:30:33.030Z,1.77
2023-09-27T01:33:04.910Z,2.40
2023-09-27T01:35:33.175Z,2.20
2023-09-27T01:38:03.483Z,1.98
2023-09-27T01:40:36.921Z,2.28
2023-09-27T01:43:06.245Z,2.08
2023-09-27T01:45:35.074Z,2.60
2023-09-27T01:48:04.316Z,2.17
2023-09-27T01:50:34.404Z,2.10
2023-09-27T01:53:04.700Z,1.73
2023-09-27T01:55:33.297Z,2.17
2023-09-27T01:58:02.035Z,2.05
2023-09-27T02:00:30.177Z,2.38
2023-09-27T02:02:59.538Z,2.15
2023-09-27T02:05:29.099Z,2.00
2023-09-27T02:07:57.820Z,2.10
2023-09-27T02:10:27.298Z,2.08
2023-09-27T02:12:55.438Z,1.95
2023-09-27T02:15:23.616Z,2.17
2023-09-27T02:17:51.789Z,1.90
2023-09-27T02:20:20.314Z,2.17
2023-09-27T02:22:51.851Z,1.70
2023-09-27T02:25:20.224Z,1.88
2023-09-27T02:27:50.134Z,2.10
2023-09-27T02:30:18.240Z,1.83
2023-09-27T02:32:46.865Z,1.85
2023-09-27T02:35:15.967Z,1.75
2023-09-27T02:37:45.912Z,1.85
2023-09-27T02:40:14.960Z,1.55
2023-09-27T02:42:44.284Z,1.77
2023-09-27T02:45:14.492Z,2.08
2023-09-27T02:47:46.921Z,1.77
2023-09-27T02:50:15.859Z,2.20
2023-09-27T02:52:44.928Z,2.13
2023-09-27T02:55:13.709Z,1.70
2023-09-27T02:57:43.812Z,1.90
2023-09-27T03:00:14.223Z,1.77
2023-09-27T03:02:43.099Z,1.80
2023-09-27T03:05:12.581Z,1.95
2023-09-27T03:07:40.943Z,1.83
2023-09-27T03:10:12.549Z,1.58
2023-09-27T03:12:41.972Z,1.70
2023-09-27T03:15:13.307Z,1.70
2023-09-27T03:17:45.352Z,1.85
2023-09-27T03:20:17.959Z,2.17
2023-09-27T03:22:46.401Z,1.83
2023-09-27T03:25:14.732Z,1.80
2023-09-27T03:27:42.867Z,1.70
2023-09-27T03:30:11.852Z,1.88
2023-09-27T03:32:40.131Z,2.00
2023-09-27T03:35:10.913Z,1.92
2023-09-27T03:37:40.029Z,1.90
2023-09-27T03:40:14.574Z,2.10
2023-09-27T03:42:47.799Z,2.55
2023-09-27T03:45:17.950Z,2.25
2023-09-27T03:47:47.021Z,2.25
2023-09-27T03:50:16.944Z,2.30
2023-09-27T03:52:45.578Z,1.77
2023-09-27T03:55:14.467Z,2.55
2023-09-27T03:57:43.112Z,1.92
2023-09-27T04:00:15.814Z,1.63
2023-09-27T04:02:44.733Z,1.70
2023-09-27T04:05:13.451Z,2.40
2023-09-27T04:07:43.317Z,2.03
2023-09-27T04:10:11.915Z,1.98
2023-09-27T04:12:40.350Z,2.15
2023-09-27T04:15:10.746Z,2.03
2023-09-27T04:17:39.825Z,2.25
2023-09-27T04:20:17.656Z,2.20
2023-09-27T04:22:49.397Z,1.90
2023-09-27T04:25:19.485Z,1.80
2023-09-27T04:27:50.866Z,2.10
2023-09-27T04:30:21.098Z,2.22
2023-09-27T04:32:52.179Z,2.28
2023-09-27T04:35:21.205Z,2.60
2023-09-27T04:37:51.335Z,2.42
2023-09-27T04:40:19.759Z,2.35
2023-09-27T04:42:48.824Z,2.42
2023-09-27T04:45:17.065Z,2.65
2023-09-27T04:47:46.416Z,2.00
2023-09-27T04:50:16.651Z,2.10
2023-09-27T04:52:45.460Z,2.30
2023-09-27T04:55:16.229Z,2.47
2023-09-27T04:57:44.469Z,2.00
2023-09-27T05:00:19.704Z,1.70
2023-09-27T05:05:17.483Z,1.85
2023-09-27T05:07:46.116Z,1.95
2023-09-27T05:10:15.649Z,1.88
2023-09-27T05:12:43.749Z,2.15
2023-09-27T05:15:12.375Z,1.80
2023-09-27T05:17:40.743Z,1.95
2023-09-27T05:20:12.534Z,1.92
2023-09-27T05:22:41.925Z,2.10
2023-09-27T05:25:11.067Z,2.03
2023-09-27T05:27:40.911Z,1.80
2023-09-27T05:30:10.230Z,1.63
2023-09-27T05:32:38.643Z,1.63
2023-09-27T05:35:08.130Z,1.80
2023-09-27T05:37:36.842Z,2.25
2023-09-27T05:40:10.316Z,2.10
2023-09-27T05:42:40.323Z,1.90
2023-09-27T05:45:12.149Z,2.10
2023-09-27T05:47:41.476Z,2.00
2023-09-27T05:50:09.728Z,2.10
2023-09-27T05:52:38.138Z,2.03
2023-09-27T05:55:07.943Z,2.10
2023-09-27T05:57:36.151Z,1.77
2023-09-27T06:00:15.841Z,1.48
2023-09-27T06:02:44.803Z,2.08
2023-09-27T06:05:13.812Z,2.60
2023-09-27T06:07:42.146Z,2.10
2023-09-27T06:10:11.054Z,2.13
2023-09-27T06:12:40.079Z,2.05
2023-09-27T06:15:13.394Z,1.95
2023-09-27T06:17:41.937Z,2.40
2023-09-27T06:20:21.642Z,2.63
2023-09-27T06:22:50.921Z,2.67
2023-09-27T06:25:19.382Z,2.15
2023-09-27T06:27:47.999Z,2.10
2023-09-27T06:30:18.192Z,2.60
2023-09-27T06:32:47.281Z,2.60
2023-09-27T06:35:15.696Z,2.47
2023-09-27T06:37:45.281Z,3.20
2023-09-27T06:40:17.697Z,2.80
2023-09-27T06:42:46.388Z,3.00
2023-09-27T06:45:15.386Z,2.60
2023-09-27T06:47:47.290Z,2.50
2023-09-27T06:50:16.644Z,2.50
2023-09-27T06:52:46.743Z,2.50
2023-09-27T06:55:18.080Z,2.80
2023-09-27T06:57:49.313Z,2.90
2023-09-27T07:00:19.819Z,2.80
2023-09-27T07:02:49.883Z,2.78
2023-09-27T07:05:20.445Z,2.78
2023-09-27T07:07:48.519Z,3.10
2023-09-27T07:10:16.747Z,2.83
2023-09-27T07:12:44.851Z,2.60
2023-09-27T07:15:15.504Z,2.92
2023-09-27T07:17:45.462Z,3.22
2023-09-27T07:20:25.359Z,3.33
2023-09-27T07:22:54.263Z,3.40
2023-09-27T07:25:23.088Z,3.50
2023-09-27T07:27:51.933Z,2.92
2023-09-27T07:30:25.692Z,3.70
2023-09-27T07:32:55.047Z,3.22
2023-09-27T07:35:28.610Z,3.03
2023-09-27T07:37:57.002Z,3.50
2023-09-27T07:40:25.223Z,3.00
2023-09-27T07:42:53.387Z,2.70
2023-09-27T07:45:23.411Z,2.90
2023-09-27T07:47:52.842Z,3.22
2023-09-27T07:50:21.921Z,3.65
2023-09-27T07:52:52.763Z,3.90
2023-09-27T07:55:22.432Z,3.75
2023-09-27T07:57:54.029Z,3.70
2023-09-27T08:00:28.589Z,4.00
2023-09-27T08:02:59.198Z,3.90
2023-09-27T08:05:27.951Z,3.50
2023-09-27T08:07:57.587Z,3.67
2023-09-27T08:10:25.954Z,3.88
2023-09-27T08:12:54.407Z,3.90
2023-09-27T08:15:22.547Z,3.72
2023-09-27T08:17:51.042Z,3.20
2023-09-27T08:20:20.312Z,3.78
2023-09-27T08:22:48.673Z,3.63
2023-09-27T08:25:18.532Z,4.50
2023-09-27T08:27:51.573Z,4.28
2023-09-27T08:30:20.893Z,3.70
2023-09-27T08:32:49.161Z,3.75
2023-09-27T08:35:18.457Z,3.60
2023-09-27T08:37:46.730Z,3.88
2023-09-27T08:40:18.047Z,3.53
2023-09-27T08:42:52.470Z,3.95
2023-09-27T08:45:24.199Z,3.22
2023-09-27T08:47:53.180Z,3.42
2023-09-27T08:50:22.348Z,4.28
2023-09-27T08:52:51.849Z,3.50
2023-09-27T08:55:21.382Z,3.50
2023-09-27T08:57:52.653Z,3.72
2023-09-27T09:00:24.975Z,3.20
2023-09-27T09:02:59.634Z,3.80
2023-09-27T09:05:30.331Z,3.10
2023-09-27T09:08:00.388Z,3.30
2023-09-27T09:10:29.793Z,3.20
2023-09-27T09:13:01.816Z,3.40
2023-09-27T09:15:37.003Z,3.17
2023-09-27T09:18:08.062Z,2.65
2023-09-27T09:20:50.497Z,2.80
2023-09-27T09:23:32.490Z,2.80
2023-09-27T09:26:00.963Z,2.80
2023-09-27T09:28:30.914Z,2.67
2023-09-27T09:30:59.713Z,3.05
2023-09-27T09:33:29.968Z,2.55
2023-09-27T09:35:58.600Z,3.00
2023-09-27T09:38:30.112Z,2.90
2023-09-27T09:40:59.419Z,3.22
2023-09-27T09:43:34.447Z,3.33
2023-09-27T09:46:04.789Z,2.80
2023-09-27T09:48:34.589Z,3.28
2023-09-27T09:51:08.042Z,2.97
2023-09-27T09:53:41.479Z,2.20
2023-09-27T09:58:48.217Z,2.72
2023-09-27T10:01:22.622Z,2.30
2023-09-27T10:03:53.810Z,2.70
2023-09-27T10:06:36.589Z,2.90
2023-09-27T10:09:17.225Z,2.60
2023-09-27T10:11:48.715Z,2.30
2023-09-27T10:14:20.506Z,2.38
2023-09-27T10:16:51.485Z,2.45
2023-09-27T10:19:37.664Z,2.15
2023-09-27T10:22:10.189Z,2.35
2023-09-27T10:24:44.051Z,2.58
2023-09-27T10:27:12.579Z,2.40
2023-09-27T10:30:01.788Z,2.60
2023-09-27T10:32:30.252Z,2.20
2023-09-27T10:35:18.029Z,2.20
2023-09-27T10:38:00.085Z,1.90
2023-09-27T10:40:28.431Z,2.25
2023-09-27T10:42:57.528Z,2.50
2023-09-27T10:45:27.748Z,2.45
2023-09-27T10:47:58.199Z,2.05
2023-09-27T10:50:32.114Z,2.25
2023-09-27T10:53:01.911Z,2.20
2023-09-27T10:55:40.004Z,2.10
2023-09-27T10:58:08.380Z,2.20
2023-09-27T11:00:51.891Z,2.10
2023-09-27T11:03:20.684Z,2.13
2023-09-27T11:05:48.974Z,2.20
2023-09-27T11:08:25.010Z,2.67
2023-09-27T11:10:54.373Z,2.20
2023-09-27T11:13:23.151Z,2.50
2023-09-27T11:15:53.033Z,2.00
2023-09-27T11:18:21.345Z,1.95
2023-09-27T11:20:49.861Z,1.70
2023-09-27T11:23:21.376Z,1.88
2023-09-27T11:25:50.574Z,2.30
2023-09-27T11:28:19.581Z,2.33
2023-09-27T11:30:57.680Z,2.22
2023-09-27T11:33:33.702Z,2.33
2023-09-27T11:36:06.823Z,2.05
2023-09-27T11:38:34.992Z,1.90
2023-09-27T11:41:07.523Z,2.10
2023-09-27T11:43:35.811Z,1.80
2023-09-27T11:46:05.020Z,2.08
2023-09-27T11:48:35.965Z,1.90
2023-09-27T11:51:05.840Z,2.03
2023-09-27T11:53:34.270Z,2.00
2023-09-27T11:56:02.808Z,2.00
2023-09-27T11:58:31.064Z,2.03
2023-09-27T12:00:59.597Z,2.22
2023-09-27T12:03:28.121Z,1.90
2023-09-27T12:05:58.142Z,2.20
2023-09-27T12:08:26.531Z,2.10
2023-09-27T12:10:54.730Z,2.17
2023-09-27T12:13:23.563Z,2.20
2023-09-27T12:15:52.189Z,2.13
2023-09-27T12:18:20.461Z,1.88
2023-09-27T12:20:51.220Z,2.20
2023-09-27T12:23:21.473Z,2.25
2023-09-27T12:25:50.010Z,2.22
2023-09-27T12:28:18.256Z,1.80
2023-09-27T12:30:46.445Z,2.38
2023-09-27T12:33:15.305Z,2.28
2023-09-27T12:35:43.947Z,2.53
2023-09-27T12:38:13.132Z,2.78
2023-09-27T12:40:42.986Z,2.25
2023-09-27T12:43:11.963Z,2.33
2023-09-27T12:45:40.973Z,2.50
2023-09-27T12:48:09.568Z,2.15
2023-09-27T12:50:41.789Z,2.13
2023-09-27T12:53:13.458Z,2.20
2023-09-27T12:55:46.020Z,1.80
2023-09-27T12:58:15.061Z,1.90
2023-09-27T13:00:44.389Z,1.90
2023-09-27T13:03:12.978Z,1.88
2023-09-27T13:05:41.404Z,2.13
2023-09-27T13:08:10.131Z,1.90
2023-09-27T13:10:39.988Z,2.00
2023-09-27T13:13:11.075Z,1.70
2023-09-27T13:15:39.398Z,1.60
2023-09-27T13:18:08.458Z,1.88
2023-09-27T13:20:36.907Z,1.80
2023-09-27T13:23:05.448Z,1.50
2023-09-27T13:25:33.752Z,1.60
2023-09-27T13:28:01.918Z,1.90
2023-09-27T13:30:36.217Z,1.80
2023-09-27T13:33:05.590Z,1.70
2023-09-27T13:35:36.566Z,1.85
2023-09-27T13:38:06.988Z,1.90
2023-09-27T13:40:35.878Z,2.20
2023-09-27T13:43:04.211Z,1.67
2023-09-27T13:45:33.950Z,1.40
2023-09-27T13:48:02.446Z,1.90
2023-09-27T13:50:33.419Z,1.63
2023-09-27T13:53:02.718Z,1.80
2023-09-27T13:55:31.002Z,1.60
2023-09-27T13:57:59.185Z,1.60
2023-09-27T14:00:27.478Z,1.60
2023-09-27T14:02:57.636Z,1.70
2023-09-27T14:05:26.083Z,1.73
2023-09-27T14:07:54.434Z,1.65
2023-09-27T14:10:24.345Z,1.67
2023-09-27T14:12:53.011Z,2.00
2023-09-27T14:15:22.439Z,1.88
2023-09-27T14:17:50.766Z,1.60
2023-09-27T14:20:22.471Z,1.75
2023-09-27T14:22:51.050Z,1.52
2023-09-27T14:25:21.080Z,2.10
2023-09-27T14:27:49.370Z,1.80
2023-09-27T14:30:17.590Z,1.90
2023-09-27T14:32:45.963Z,1.80
2023-09-27T14:35:14.490Z,1.70
2023-09-27T14:37:44.081Z,1.75
2023-09-27T14:40:13.799Z,1.80
2023-09-27T14:42:44.095Z,1.80
2023-09-27T14:45:28.286Z,1.70
2023-09-27T14:48:02.581Z,1.58
2023-09-27T14:50:30.745Z,1.85
2023-09-27T14:53:00.630Z,1.90
2023-09-27T14:55:29.105Z,1.92
2023-09-27T14:57:58.489Z,2.08
2023-09-27T15:00:26.838Z,1.60
2023-09-27T15:02:55.877Z,1.77
2023-09-27T15:05:24.400Z,1.70
2023-09-27T15:07:52.624Z,1.80
2023-09-27T15:10:22.225Z,1.88
2023-09-27T15:12:50.627Z,1.90
2023-09-27T15:15:18.763Z,1.83
2023-09-27T15:17:47.950Z,2.05
2023-09-27T15:20:16.438Z,1.80
2023-09-27T15:22:45.395Z,1.75
2023-09-27T15:25:13.624Z,2.00
2023-09-27T15:27:43.434Z,1.80
2023-09-27T15:30:13.880Z,1.80
2023-09-27T15:32:43.843Z,1.90
2023-09-27T15:35:12.249Z,1.80
2023-09-27T15:37:52.133Z,1.95
2023-09-27T15:40:20.920Z,1.80
2023-09-27T15:42:53.669Z,1.80
2023-09-27T15:45:22.638Z,1.70
2023-09-27T15:47:51.304Z,2.13
2023-09-27T15:50:19.699Z,2.15
2023-09-27T15:52:48.746Z,1.73
2023-09-27T15:55:18.303Z,2.28
2023-09-27T15:57:46.606Z,1.90
2023-09-27T16:00:17.606Z,2.00
2023-09-27T16:02:46.057Z,1.90
2023-09-27T16:05:14.519Z,2.08
2023-09-27T16:07:42.999Z,1.65
2023-09-27T16:10:12.850Z,2.22
2023-09-27T16:12:42.728Z,2.00
2023-09-27T16:15:11.825Z,2.20
2023-09-27T16:17:41.479Z,2.20
2023-09-27T16:20:11.099Z,2.30
2023-09-27T16:22:39.666Z,2.00
2023-09-27T16:25:08.906Z,1.95
2023-09-27T16:27:41.161Z,2.00
2023-09-27T16:30:12.145Z,1.88
2023-09-27T16:32:42.542Z,2.15
2023-09-27T16:35:11.103Z,2.08
2023-09-27T16:37:39.808Z,2.10
2023-09-27T16:40:09.134Z,2.10
2023-09-27T16:42:37.251Z,2.05
2023-09-27T16:45:06.460Z,1.92
2023-09-27T16:47:34.956Z,2.30
2023-09-27T16:50:04.729Z,2.33
2023-09-27T16:52:33.799Z,2.00
2023-09-27T16:55:02.087Z,2.22
2023-09-27T16:57:30.241Z,2.08
2023-09-27T17:00:00.412Z,2.20
2023-09-27T17:02:28.762Z,2.00
2023-09-27T17:04:56.963Z,2.30
2023-09-27T17:07:28.616Z,2.20
2023-09-27T17:09:56.908Z,1.73
2023-09-27T17:12:25.088Z,1.80
2023-09-27T17:14:53.223Z,2.28
2023-09-27T17:17:21.481Z,2.70
2023-09-27T17:19:50.679Z,2.75
2023-09-27T17:22:18.975Z,2.88
2023-09-27T17:24:49.809Z,2.75
2023-09-27T17:27:18.741Z,2.50
2023-09-27T17:29:46.973Z,2.30
2023-09-27T17:32:15.209Z,2.15
2023-09-27T17:34:43.536Z,2.17
2023-09-27T17:37:12.206Z,2.20
2023-09-27T17:39:40.434Z,2.60
2023-09-27T17:42:09.987Z,1.90
2023-09-27T17:44:38.717Z,2.10
2023-09-27T17:47:07.052Z,1.90
2023-09-27T17:49:35.439Z,2.00
2023-09-27T17:52:03.690Z,1.90
2023-09-27T17:54:31.869Z,2.08
2023-09-27T17:57:00.050Z,2.05
2023-09-27T17:59:29.728Z,2.58
2023-09-27T18:01:57.973Z,2.42
2023-09-27T18:04:29.600Z,2.28
2023-09-27T18:06:57.856Z,2.10
2023-09-27T18:09:26.092Z,2.05
2023-09-27T18:11:54.450Z,2.20
2023-09-27T18:14:23.006Z,1.95
2023-09-27T18:16:52.628Z,2.30
2023-09-27T18:19:20.775Z,2.22
2023-09-27T18:21:50.076Z,2.25
2023-09-27T18:24:18.352Z,2.67
2023-09-27T18:26:46.650Z,2.20
2023-09-27T18:29:14.831Z,2.25
2023-09-27T18:31:43.668Z,2.30
2023-09-27T18:34:14.963Z,2.30
2023-09-27T18:36:43.335Z,2.33
2023-09-27T18:39:11.556Z,2.60
2023-09-27T18:41:39.705Z,2.58
2023-09-27T18:44:08.392Z,2.53
2023-09-27T18:46:36.635Z,2.58
2023-09-27T18:49:04.917Z,2.85
2023-09-27T18:51:34.459Z,2.60
2023-09-27T18:54:02.598Z,2.45
2023-09-27T18:56:30.726Z,2.65
2023-09-27T18:59:00.013Z,2.13
2023-09-27T19:01:28.402Z,2.63
2023-09-27T19:03:56.774Z,2.60
2023-09-27T19:06:25.094Z,2.60
2023-09-27T19:08:55.323Z,2.35
2023-09-27T19:11:23.540Z,2.67
2023-09-27T19:13:52.070Z,2.50
2023-09-27T19:16:20.552Z,2.60
2023-09-27T19:18:48.773Z,2.55
2023-09-27T19:21:16.935Z,2.50
2023-09-27T19:23:45.232Z,2.42
2023-09-27T19:26:15.186Z,2.20
2023-09-27T19:28:43.442Z,2.30
2023-09-27T19:31:11.625Z,2.67
2023-09-27T19:33:42.749Z,2.08
2023-09-27T19:36:15.692Z,2.55
2023-09-27T19:38:43.893Z,2.30
2023-09-27T19:41:12.109Z,2.17
2023-09-27T19:43:41.766Z,2.58
2023-09-27T19:46:10.138Z,2.50
2023-09-27T19:48:42.461Z,2.47
2023-09-27T19:51:11.937Z,2.30
2023-09-27T19:53:40.380Z,2.40
2023-09-27T19:56:08.563Z,2.40
2023-09-27T19:58:36.706Z,2.40
2023-09-27T20:01:06.257Z,2.45
2023-09-27T20:03:34.475Z,2.30
2023-09-27T20:06:03.724Z,2.30
2023-09-27T20:08:31.866Z,2.25
2023-09-27T20:11:00.085Z,2.50
2023-09-27T20:13:28.242Z,2.30
2023-09-27T20:15:56.690Z,2.70
2023-09-27T20:18:26.774Z,2.38
2023-09-27T20:20:54.929Z,2.40
2023-09-27T20:23:23.075Z,2.55
2023-09-27T20:25:51.282Z,2.40
2023-09-27T20:28:19.449Z,2.47
2023-09-27T20:30:49.681Z,2.40
2023-09-27T20:33:18.340Z,2.53
2023-09-27T20:35:47.935Z,2.80
2023-09-27T20:38:16.046Z,2.10
2023-09-27T20:40:44.345Z,2.38
2023-09-27T20:43:12.475Z,2.40
2023-09-27T20:45:40.926Z,2.45
2023-09-27T20:48:09.296Z,2.42
2023-09-27T20:50:38.498Z,2.70
2023-09-27T20:53:08.088Z,2.40
2023-09-27T20:55:36.325Z,2.60
2023-09-27T20:58:05.086Z,2.38
2023-09-27T21:00:33.378Z,2.08
2023-09-27T21:03:02.393Z,2.47
2023-09-27T21:05:33.907Z,2.50
2023-09-27T21:08:02.167Z,2.53
2023-09-27T21:10:31.665Z,2.25
2023-09-27T21:12:59.913Z,2.60
2023-09-27T21:15:28.035Z,2.83
2023-09-27T21:17:56.203Z,2.60
2023-09-27T21:20:24.636Z,2.53
2023-09-27T21:22:52.885Z,2.90
2023-09-27T21:25:21.022Z,2.47
2023-09-27T21:27:50.516Z,2.38
2023-09-27T21:30:19.033Z,2.67
2023-09-27T21:32:47.179Z,2.50
2023-09-27T21:35:15.392Z,2.30
2023-09-27T21:37:43.591Z,2.15
2023-09-27T21:40:13.003Z,2.30
2023-09-27T21:42:41.125Z,2.47
2023-09-27T21:45:11.536Z,1.83
2023-09-27T21:47:39.691Z,2.50
2023-09-27T21:50:08.158Z,2.40
2023-09-27T21:52:37.198Z,2.45
2023-09-27T21:55:05.944Z,2.30
2023-09-27T21:57:34.069Z,2.20
2023-09-27T22:00:02.175Z,2.00
2023-09-27T22:02:31.712Z,2.17
2023-09-27T22:04:59.953Z,2.22
2023-09-27T22:07:28.271Z,2.15
2023-09-27T22:09:56.431Z,2.40
2023-09-27T22:12:24.598Z,2.13
2023-09-27T22:14:52.743Z,2.40
2023-09-27T22:17:24.685Z,2.30
2023-09-27T22:19:55.533Z,2.20
2023-09-27T22:22:28.207Z,2.33
2023-09-27T22:24:59.365Z,2.58
2023-09-27T22:27:27.859Z,1.88
2023-09-27T22:29:57.340Z,2.03
2023-09-27T22:32:26.473Z,2.40
2023-09-27T22:34:57.145Z,2.20
2023-09-27T22:37:25.433Z,2.30
2023-09-27T22:40:08.496Z,2.20
2023-09-27T22:42:42.777Z,2.10
2023-09-27T22:45:28.967Z,2.17
2023-09-27T22:47:57.797Z,1.70
2023-09-27T22:50:31.252Z,1.63
2023-09-27T22:52:59.634Z,2.28
2023-09-27T22:55:28.624Z,2.30
2023-09-27T22:57:57.538Z,2.55
2023-09-27T23:00:26.314Z,2.47
2023-09-27T23:02:56.753Z,2.25
2023-09-27T23:05:40.034Z,2.10
2023-09-27T23:08:11.376Z,2.20
2023-09-27T23:10:40.846Z,1.83
2023-09-27T23:13:25.332Z,2.22
2023-09-27T23:15:55.907Z,2.33
2023-09-27T23:18:27.772Z,1.92
2023-09-27T23:20:56.953Z,2.20
2023-09-27T23:23:26.712Z,2.08
2023-09-27T23:25:55.246Z,2.13
2023-09-27T23:28:41.218Z,2.30
2023-09-27T23:31:12.111Z,1.80
2023-09-27T23:33:44.350Z,2.08
2023-09-27T23:36:26.109Z,2.10
2023-09-27T23:39:00.380Z,1.77
2023-09-27T23:41:31.008Z,1.75
2023-09-27T23:44:01.432Z,2.22
2023-09-27T23:46:30.547Z,2.00
2023-09-27T23:49:03.162Z,2.10
2023-09-27T23:51:31.779Z,2.20
2023-09-27T23:54:03.725Z,2.10
2023-09-27T23:56:32.247Z,2.28
2023-09-27T23:59:09.155Z,2.85
